Time;durP1;ratioP1;P1;durP2;ratioP2;P2;SDS_P1;SDS_P2;PMS_P1;PMS_P2;Temp;Humidity;BMP_temperature;BMP_pressure;BME280_temperature;BME280_humidity;BME280_pressure;Samples;Min_cycle;Max_cycle;Signal;HPM_P1;HPM_P2
2022/07/24 00:01:29;;;;;;;5.80;4.60;;;;;;;27.78;41.99;99456.66;5156852;27;20189;-67
2022/07/24 00:03:56;;;;;;;6.27;4.30;;;;;;;27.84;41.95;99462.81;5156716;27;20251;-66
2022/07/24 00:06:23;;;;;;;6.37;3.80;;;;;;;27.85;41.98;99461.72;5156793;27;20246;-67
2022/07/24 00:08:50;;;;;;;5.93;4.47;;;;;;;27.86;41.92;99460.59;5156663;27;20246;-67
2022/07/24 00:11:18;;;;;;;8.73;4.60;;;;;;;27.84;41.98;99462.81;5157146;27;20189;-67
2022/07/24 00:13:45;;;;;;;6.17;4.20;;;;;;;27.70;42.46;99459.28;5156607;27;20276;-67
2022/07/24 00:16:12;;;;;;;4.33;4.00;;;;;;;27.71;42.22;99460.91;5156268;27;20721;-67
2022/07/24 00:18:39;;;;;;;7.03;4.83;;;;;;;27.49;42.84;99458.16;5156474;27;20272;-67
2022/07/24 00:21:06;;;;;;;9.97;4.50;;;;;;;27.54;42.87;99461.56;5156398;27;20213;-66
2022/07/24 00:23:33;;;;;;;5.10;4.13;;;;;;;27.58;42.66;99473.50;5156930;27;20211;-66
2022/07/24 00:26:00;;;;;;;5.20;4.43;;;;;;;27.59;42.46;99464.19;5156067;27;20672;-67
2022/07/24 00:28:28;;;;;;;5.93;4.40;;;;;;;27.60;42.65;99465.00;5155991;27;20696;-66
2022/07/24 00:30:55;;;;;;;4.87;4.40;;;;;;;27.61;42.38;99472.06;5156201;27;20226;-67
2022/07/24 00:33:21;;;;;;;7.47;4.67;;;;;;;27.38;43.06;99464.94;5156206;27;20193;-66
2022/07/24 00:35:48;;;;;;;5.70;4.67;;;;;;;27.45;43.01;99468.06;5155607;27;20667;-67
2022/07/24 00:38:15;;;;;;;6.63;5.00;;;;;;;27.47;43.05;99471.28;5156920;27;20193;-66
2022/07/24 00:40:42;;;;;;;9.30;4.73;;;;;;;27.49;43.24;99469.06;5156294;27;20298;-67
2022/07/24 00:43:08;;;;;;;6.20;5.00;;;;;;;27.39;43.31;99472.00;5155710;27;20668;-66
2022/07/24 00:45:37;;;;;;;6.57;5.83;;;;;;;27.19;44.02;99472.44;5155656;27;20250;-66
2022/07/24 00:48:04;;;;;;;7.27;5.83;;;;;;;27.26;43.83;99475.56;5155687;27;20648;-66
2022/07/24 00:50:31;;;;;;;7.30;6.60;;;;;;;27.24;43.59;99470.41;5155608;27;20580;-66
2022/07/24 00:52:58;;;;;;;8.17;7.37;;;;;;;27.17;43.92;99466.44;5155815;27;20193;-66
2022/07/24 00:55:25;;;;;;;8.97;7.20;;;;;;;26.84;44.93;99473.13;5155800;27;20190;-66
2022/07/24 00:57:52;;;;;;;7.57;6.93;;;;;;;26.84;44.83;99473.13;5155790;27;20193;-66
2022/07/24 01:00:21;;;;;;;9.93;7.93;;;;;;;26.89;45.31;99467.56;5155578;27;20281;-66
2022/07/24 01:02:49;;;;;;;10.63;6.87;;;;;;;26.87;44.78;99461.63;5155241;27;20234;-66
2022/07/24 01:05:18;;;;;;;7.90;7.10;;;;;;;26.86;45.11;99463.53;5155264;27;20186;-66
2022/07/24 01:07:44;;;;;;;7.97;7.23;;;;;;;26.78;45.09;99463.44;5155213;27;20740;-66
2022/07/24 01:10:11;;;;;;;6.57;6.10;;;;;;;26.58;45.92;99458.38;5155521;27;20189;-67
2022/07/24 01:12:39;;;;;;;6.93;6.30;;;;;;;26.15;47.04;99457.75;5155436;27;20189;-67
2022/07/24 01:15:08;;;;;;;12.73;6.57;;;;;;;26.26;46.85;99461.94;5156006;27;20613;-67
2022/07/24 01:17:38;;;;;;;9.30;6.00;;;;;;;25.79;48.24;99450.41;5155395;27;20189;-67
2022/07/24 01:20:07;;;;;;;7.00;6.17;;;;;;;25.94;48.18;99455.66;5154901;27;20270;-67
2022/07/24 01:22:35;;;;;;;8.17;6.20;;;;;;;26.07;47.83;99458.44;5154936;27;20658;-67
2022/07/24 01:25:02;;;;;;;6.40;5.67;;;;;;;25.99;48.04;99452.84;5155182;27;20205;-67
2022/07/24 01:27:29;;;;;;;6.33;5.87;;;;;;;26.07;47.46;99452.97;5155654;27;20198;-67
2022/07/24 01:29:55;;;;;;;6.57;5.90;;;;;;;25.75;48.65;99460.25;5155429;27;20193;-67
2022/07/24 01:32:22;;;;;;;5.70;5.00;;;;;;;25.90;48.49;99451.88;5155636;27;20193;-67
2022/07/24 01:34:49;;;;;;;8.47;5.50;;;;;;;25.96;48.29;99450.72;5154636;27;20222;-67
2022/07/24 01:37:16;;;;;;;5.77;5.27;;;;;;;25.80;48.52;99452.03;5154727;27;20660;-67
2022/07/24 01:39:44;;;;;;;6.77;6.10;;;;;;;25.69;49.48;99453.28;5154540;27;20671;-67
2022/07/24 01:42:11;;;;;;;6.03;5.00;;;;;;;25.65;49.42;99450.38;5154534;27;20189;-67
2022/07/24 01:44:38;;;;;;;6.10;5.10;;;;;;;25.80;48.98;99454.75;5154810;27;20246;-67
2022/07/24 01:47:04;;;;;;;9.80;5.10;;;;;;;25.69;49.26;99453.28;5154729;27;20278;-68
2022/07/24 01:49:31;;;;;;;5.90;5.23;;;;;;;25.57;49.35;99447.47;5154358;27;20552;-68
2022/07/24 01:51:58;;;;;;;8.30;4.87;;;;;;;25.73;49.05;99441.53;5154333;27;20620;-67
2022/07/24 01:54:25;;;;;;;7.47;5.10;;;;;;;25.82;48.91;99438.94;5154669;27;20189;-67
2022/07/24 01:56:53;;;;;;;6.20;4.97;;;;;;;25.72;49.28;99441.81;5155093;27;20197;-67
2022/07/24 01:59:19;;;;;;;8.13;4.77;;;;;;;25.65;49.62;99446.81;5154548;27;20193;-67
2022/07/24 02:01:46;;;;;;;8.07;5.60;;;;;;;25.46;50.13;99446.81;5154704;27;20240;-67
2022/07/24 02:04:13;;;;;;;5.93;4.10;;;;;;;25.41;50.00;99443.38;5154165;27;20250;-68
2022/07/24 02:06:40;;;;;;;5.27;4.33;;;;;;;25.52;49.96;99447.56;5154603;27;20262;-67
2022/07/24 02:09:06;;;;;;;7.10;4.67;;;;;;;25.59;49.55;99445.28;5154061;27;20190;-67
2022/07/24 02:11:33;;;;;;;5.33;4.83;;;;;;;25.45;49.66;99425.34;5154928;27;20193;-67
2022/07/24 02:14:01;;;;;;;5.97;4.97;;;;;;;25.37;50.21;99439.63;5154007;27;20193;-67
2022/07/24 02:16:28;;;;;;;10.33;5.23;;;;;;;25.58;49.62;99433.59;5153924;27;20189;-67
2022/07/24 02:18:55;;;;;;;12.77;4.80;;;;;;;25.61;49.51;99435.72;5153881;27;20196;-67
2022/07/24 02:21:22;;;;;;;9.87;4.93;;;;;;;25.63;49.51;99435.44;5154384;27;20216;-67
2022/07/24 02:23:48;;;;;;;5.27;4.77;;;;;;;25.61;49.70;99437.63;5154354;27;20189;-67
2022/07/24 02:26:15;;;;;;;4.73;4.10;;;;;;;25.72;49.25;99437.16;5153761;27;20193;-67
2022/07/24 02:28:42;;;;;;;8.80;4.60;;;;;;;25.75;48.93;99438.50;5154034;27;20193;-67
2022/07/24 02:31:10;;;;;;;7.17;4.73;;;;;;;25.84;48.69;99439.47;5153781;27;20589;-67
2022/07/24 02:33:37;;;;;;;5.67;4.37;;;;;;;25.93;48.59;99434.94;5154539;27;20269;-67
2022/07/24 02:36:04;;;;;;;6.53;4.23;;;;;;;26.01;49.01;99434.31;5154510;27;20242;-67
2022/07/24 02:38:31;;;;;;;6.00;5.40;;;;;;;26.11;48.87;99448.56;5154499;27;20193;-67
2022/07/24 02:40:58;;;;;;;7.80;4.73;;;;;;;26.17;48.88;99446.56;5153859;27;20224;-67
2022/07/24 02:43:25;;;;;;;7.27;4.30;;;;;;;26.24;48.45;99436.88;5153820;27;20193;-67
2022/07/24 02:45:52;;;;;;;4.80;4.40;;;;;;;26.26;48.65;99437.41;5154137;27;20193;-67
2022/07/24 02:48:20;;;;;;;7.97;4.63;;;;;;;26.31;48.12;99436.50;5153946;27;20229;-67
2022/07/24 02:50:47;;;;;;;4.97;4.57;;;;;;;26.35;48.21;99432.88;5153827;27;20189;-67
2022/07/24 02:53:14;;;;;;;8.17;4.70;;;;;;;26.44;48.39;99435.72;5153494;27;20238;-67
2022/07/24 02:55:41;;;;;;;6.27;4.17;;;;;;;26.51;48.16;99438.84;5153434;27;20814;-67
2022/07/24 02:58:08;;;;;;;5.83;4.43;;;;;;;26.64;48.05;99438.09;5153479;27;20221;-67
2022/07/24 03:00:34;;;;;;;5.03;4.70;;;;;;;26.70;47.88;99440.41;5156285;27;20296;-67
2022/07/24 03:03:01;;;;;;;6.10;4.57;;;;;;;26.78;47.47;99441.63;5158514;27;20255;-66
2022/07/24 03:05:30;;;;;;;6.23;4.57;;;;;;;26.86;47.57;99438.22;5157608;27;20614;-67
2022/07/24 03:07:57;;;;;;;5.47;4.60;;;;;;;26.84;47.53;99432.25;5157624;27;20720;-66
2022/07/24 03:10:23;;;;;;;5.70;4.63;;;;;;;26.91;46.77;99438.09;5157869;27;20253;-67
2022/07/24 03:12:50;;;;;;;6.13;5.63;;;;;;;26.93;46.27;99435.88;5157491;27;20733;-67
2022/07/24 03:15:17;;;;;;;8.47;5.80;;;;;;;26.88;45.85;99435.97;5157800;27;20245;-66
2022/07/24 03:17:50;;;;;;;8.33;6.20;;;;;;;26.81;44.99;99441.00;5157426;27;20652;-67
2022/07/24 03:20:17;;;;;;;8.80;6.00;;;;;;;26.70;45.58;99439.63;5157401;27;20300;-67
2022/07/24 03:22:45;;;;;;;5.97;5.23;;;;;;;26.69;45.68;99437.97;5157309;27;20608;-68
2022/07/24 03:25:12;;;;;;;5.40;5.00;;;;;;;26.77;46.21;99440.00;5157117;27;20660;-67
2022/07/24 03:27:38;;;;;;;7.50;5.33;;;;;;;26.85;45.60;99442.84;5157747;27;20185;-67
2022/07/24 03:30:07;;;;;;;10.23;6.17;;;;;;;26.87;45.04;99445.28;5157415;27;20201;-67
2022/07/24 03:32:34;;;;;;;11.07;6.10;;;;;;;26.83;46.07;99452.44;5157385;27;20190;-68
2022/07/24 03:35:01;;;;;;;7.23;5.57;;;;;;;26.87;45.53;99445.28;5157357;27;20276;-67
2022/07/24 03:37:28;;;;;;;60.87;9.10;;;;;;;26.76;45.43;99441.94;5157296;27;20189;-67
2022/07/24 03:39:56;;;;;;;8.73;6.43;;;;;;;26.65;45.85;99443.25;5157307;27;20242;-67
2022/07/24 03:42:23;;;;;;;8.63;6.03;;;;;;;26.64;45.96;99435.34;5157112;27;20213;-68
2022/07/24 03:44:50;;;;;;;13.73;7.57;;;;;;;26.52;46.07;99435.00;5157747;27;20229;-68
2022/07/24 03:47:17;;;;;;;14.80;6.73;;;;;;;26.34;46.36;99435.91;5156799;27;20226;-68
2022/07/24 03:49:43;;;;;;;7.97;6.63;;;;;;;26.31;47.41;99437.31;5156705;27;20234;-67
2022/07/24 03:52:10;;;;;;;6.93;6.10;;;;;;;26.42;47.77;99443.38;5156739;27;20260;-68
2022/07/24 03:54:37;;;;;;;12.60;7.53;;;;;;;26.58;46.85;99452.94;5156696;27;20221;-67
2022/07/24 03:57:06;;;;;;;8.97;6.27;;;;;;;26.64;47.25;99451.72;5156936;27;20194;-67
2022/07/24 03:59:32;;;;;;;8.70;5.97;;;;;;;26.79;46.73;99454.16;5157498;27;20185;-67
2022/07/24 04:01:59;;;;;;;8.03;7.00;;;;;;;27.00;46.71;99450.72;5156808;27;20286;-67
2022/07/24 04:04:26;;;;;;;11.17;6.73;;;;;;;27.18;45.82;99457.97;5156538;27;20729;-67
2022/07/24 04:06:53;;;;;;;10.40;7.03;;;;;;;27.40;46.03;99462.72;5157277;27;20204;-67
2022/07/24 04:09:19;;;;;;;13.17;7.80;;;;;;;27.68;45.33;99453.34;5156305;27;20616;-67
2022/07/24 04:11:47;;;;;;;7.80;6.70;;;;;;;28.28;44.03;99454.59;5155657;27;20201;-68
2022/07/24 04:14:15;;;;;;;10.43;6.50;;;;;;;28.92;42.05;99462.19;5156731;27;20193;-67
2022/07/24 04:16:41;;;;;;;8.53;7.43;;;;;;;29.56;41.29;99469.59;5156063;27;20193;-67
2022/07/24 04:19:08;;;;;;;13.07;7.97;;;;;;;30.17;39.55;99463.84;5156644;27;20194;-67
2022/07/24 04:21:35;;;;;;;8.67;6.80;;;;;;;30.62;37.92;99470.50;5156289;27;20224;-67
2022/07/24 04:24:02;;;;;;;11.20;7.70;;;;;;;31.14;37.60;99473.84;5156268;27;20185;-67
2022/07/24 04:26:28;;;;;;;10.20;8.03;;;;;;;31.53;37.26;99468.81;5155890;27;20194;-67
2022/07/24 04:28:55;;;;;;;10.67;7.47;;;;;;;31.81;36.48;99472.66;5156175;27;20193;-67
2022/07/24 04:31:23;;;;;;;12.43;7.93;;;;;;;32.09;36.30;99473.69;5156402;27;20248;-66
2022/07/24 04:33:50;;;;;;;9.67;7.13;;;;;;;32.26;35.70;99478.25;5156099;27;20197;-66
2022/07/24 04:36:17;;;;;;;12.77;6.67;;;;;;;32.43;34.56;99470.66;5155695;27;20234;-66
2022/07/24 04:38:43;;;;;;;9.63;6.77;;;;;;;32.77;34.03;99481.25;5156022;27;20241;-66
2022/07/24 04:41:10;;;;;;;7.53;6.83;;;;;;;33.03;33.46;99475.47;5155617;27;20700;-66
2022/07/24 04:43:37;;;;;;;10.93;7.07;;;;;;;33.48;32.97;99473.41;5155642;27;20189;-66
2022/07/24 04:46:04;;;;;;;14.63;7.73;;;;;;;33.91;31.99;99472.72;5156396;27;20237;-66
2022/07/24 04:48:32;;;;;;;10.83;7.37;;;;;;;34.08;31.62;99469.69;5156243;27;20614;-67
2022/07/24 04:50:59;;;;;;;12.23;7.45;;;;;;;34.21;31.14;99471.22;5155444;27;20757;-66
2022/07/24 04:53:26;;;;;;;14.30;7.30;;;;;;;34.33;31.23;99479.47;5155377;27;20189;-66
2022/07/24 04:55:52;;;;;;;11.30;7.57;;;;;;;34.65;31.11;99467.31;5155608;27;20201;-66
2022/07/24 04:58:19;;;;;;;10.00;7.75;;;;;;;34.53;30.96;99468.19;5155726;27;20197;-66
2022/07/24 05:00:46;;;;;;;12.15;7.53;;;;;;;34.86;30.38;99468.69;5155272;27;20194;-66
2022/07/24 05:03:13;;;;;;;12.35;7.55;;;;;;;34.81;30.39;99474.47;5155614;27;20215;-66
2022/07/24 05:05:41;;;;;;;13.13;7.28;;;;;;;35.22;30.26;99478.63;5155939;27;20222;-66
2022/07/24 05:08:07;;;;;;;11.93;7.25;;;;;;;35.55;29.55;99479.03;5155071;27;20250;-66
2022/07/24 05:10:34;;;;;;;12.65;6.80;;;;;;;35.81;29.21;99468.19;5155689;27;20200;-66
2022/07/24 05:13:01;;;;;;;45.90;9.82;;;;;;;36.29;28.16;99475.94;5155800;27;20683;-67
2022/07/24 05:15:28;;;;;;;9.43;7.15;;;;;;;36.51;27.94;99477.91;5155334;27;20193;-66
2022/07/24 05:17:54;;;;;;;9.70;6.93;;;;;;;36.54;27.94;99468.88;5156061;27;20189;-66
2022/07/24 05:20:21;;;;;;;54.95;10.98;;;;;;;37.00;27.31;99470.50;5155289;27;20616;-66
2022/07/24 05:22:49;;;;;;;9.90;7.50;;;;;;;37.00;26.60;99478.81;5153813;27;20712;-66
2022/07/24 05:25:16;;;;;;;8.18;6.68;;;;;;;36.66;27.86;99477.03;5154844;27;20660;-66
2022/07/24 05:27:43;;;;;;;8.95;6.95;;;;;;;37.00;27.32;99474.06;5155649;27;20250;-67
2022/07/24 05:30:11;;;;;;;28.60;8.30;;;;;;;37.13;27.28;99469.13;5155196;27;20648;-66
2022/07/24 05:32:37;;;;;;;9.13;7.25;;;;;;;37.29;27.24;99469.81;5154725;27;20249;-66
2022/07/24 05:35:05;;;;;;;8.27;6.28;;;;;;;37.27;26.80;99474.91;5154263;27;20242;-68
2022/07/24 05:37:32;;;;;;;8.43;6.78;;;;;;;37.34;27.01;99477.78;5154629;27;20189;-67
2022/07/24 05:40:00;;;;;;;8.60;6.90;;;;;;;37.37;26.92;99477.03;5154898;27;20238;-67
2022/07/24 05:42:27;;;;;;;8.93;7.28;;;;;;;37.11;27.46;99469.50;5154455;27;20213;-66
2022/07/24 05:44:53;;;;;;;8.18;7.35;;;;;;;37.19;27.24;99473.19;5154759;27;20284;-66
2022/07/24 05:47:20;;;;;;;11.80;7.63;;;;;;;37.13;26.70;99477.44;5146636;27;20271;-66
2022/07/24 05:49:47;;;;;;;9.77;7.38;;;;;;;37.24;26.55;99475.66;5132963;27;20234;-68
2022/07/24 05:52:14;;;;;;;10.80;7.68;;;;;;;37.25;26.88;99466.19;5132600;27;20197;-67
2022/07/24 05:54:40;;;;;;;8.15;7.35;;;;;;;37.36;26.42;99469.91;5133253;27;20669;-66
2022/07/24 05:57:08;;;;;;;9.60;7.65;;;;;;;37.14;27.01;99465.19;5131843;27;20193;-67
2022/07/24 05:59:35;;;;;;;13.77;7.18;;;;;;;37.30;26.34;99460.31;5132178;27;20190;-67
2022/07/24 06:02:03;;;;;;;8.35;6.65;;;;;;;37.33;25.79;99467.06;5125127;27;20222;-68
2022/07/24 06:04:30;;;;;;;12.82;7.63;;;;;;;37.54;26.43;99468.19;5127809;27;20611;-68
2022/07/24 06:06:57;;;;;;;9.75;6.72;;;;;;;37.46;25.94;99463.72;5129820;27;20190;-70
2022/07/24 06:09:24;;;;;;;12.52;7.57;;;;;;;37.26;25.99;99458.66;5128690;27;20198;-70
2022/07/24 06:11:51;;;;;;;10.00;7.75;;;;;;;37.46;26.11;99458.16;5128768;27;20194;-67
2022/07/24 06:14:19;;;;;;;14.73;8.30;;;;;;;37.22;26.58;99450.28;5130855;27;20624;-68
2022/07/24 06:16:46;;;;;;;8.73;7.43;;;;;;;37.27;25.68;99452.72;5133335;27;20194;-66
2022/07/24 06:19:12;;;;;;;7.85;7.20;;;;;;;36.90;26.03;99448.94;5132979;27;20669;-67
2022/07/24 06:21:39;;;;;;;9.63;7.65;;;;;;;36.56;26.30;99439.66;5133448;27;20222;-67
2022/07/24 06:24:06;;;;;;;9.52;6.85;;;;;;;36.40;26.84;99433.44;5133153;27;20194;-67
2022/07/24 06:26:33;;;;;;;8.25;6.55;;;;;;;36.32;27.08;99441.97;5131474;27;20680;-67
2022/07/24 06:29:00;;;;;;;13.60;7.65;;;;;;;36.47;26.86;99432.75;5132965;27;20198;-68
2022/07/24 06:31:28;;;;;;;12.13;6.95;;;;;;;36.49;26.36;99439.53;5131032;27;20572;-67
2022/07/24 06:33:54;;;;;;;7.95;7.35;;;;;;;36.56;26.35;99431.34;5132613;27;20254;-66
2022/07/24 06:36:21;;;;;;;7.90;6.35;;;;;;;36.69;26.38;99434.75;5133218;27;20190;-66
2022/07/24 06:38:48;;;;;;;12.80;6.80;;;;;;;36.86;26.28;99423.16;5132700;27;20246;-66
2022/07/24 06:41:15;;;;;;;9.18;8.32;;;;;;;36.98;26.14;99426.53;5133590;27;20276;-66
2022/07/24 06:43:42;;;;;;;11.70;7.57;;;;;;;37.38;25.45;99423.19;5132758;27;20281;-67
2022/07/24 06:46:09;;;;;;;8.48;6.85;;;;;;;37.40;25.83;99426.41;5132892;27;20326;-66
2022/07/24 06:48:38;;;;;;;9.00;6.80;;;;;;;37.45;25.63;99428.84;5133057;28;20229;-67
2022/07/24 06:51:05;;;;;;;15.00;7.10;;;;;;;37.39;25.76;99419.25;5132781;28;20224;-65
2022/07/24 06:53:32;;;;;;;8.60;6.88;;;;;;;37.03;25.99;99422.66;5133051;28;20197;-65
2022/07/24 06:55:58;;;;;;;11.43;6.90;;;;;;;37.09;25.91;99419.19;5132774;28;20721;-65
2022/07/24 06:58:25;;;;;;;13.50;7.28;;;;;;;36.89;25.63;99416.88;5132731;28;20271;-66
2022/07/24 07:00:52;;;;;;;12.50;7.05;;;;;;;36.79;26.30;99406.44;5132961;28;20258;-65
2022/07/24 07:03:19;;;;;;;14.77;8.07;;;;;;;36.66;26.42;99419.66;5132525;28;20270;-66
2022/07/24 07:05:47;;;;;;;8.00;7.28;;;;;;;36.51;27.24;99411.47;5132577;28;20190;-66
2022/07/24 07:08:14;;;;;;;7.90;7.07;;;;;;;36.58;27.09;99400.53;5132731;28;20208;-66
2022/07/24 07:10:41;;;;;;;12.80;7.22;;;;;;;36.68;26.90;99405.47;5132875;28;20197;-66
2022/07/24 07:13:07;;;;;;;11.43;8.00;;;;;;;36.97;26.37;99410.28;5132756;27;20202;-67
2022/07/24 07:15:34;;;;;;;7.75;7.15;;;;;;;36.81;26.79;99407.69;5132815;27;20247;-67
2022/07/24 07:18:01;;;;;;;11.13;6.90;;;;;;;36.71;26.59;99399.97;5133486;27;20194;-67
2022/07/24 07:20:27;;;;;;;10.88;7.07;;;;;;;36.37;27.89;99394.63;5132408;27;20253;-67
2022/07/24 07:22:56;;;;;;;7.97;7.28;;;;;;;36.36;28.07;99393.03;5132473;27;20263;-67
2022/07/24 07:25:22;;;;;;;9.45;6.68;;;;;;;36.65;26.94;99397.88;5132321;28;20186;-67
2022/07/24 07:27:50;;;;;;;13.68;7.53;;;;;;;36.97;26.54;99399.22;5132189;28;20627;-68
2022/07/24 07:30:17;;;;;;;10.02;6.60;;;;;;;37.15;26.74;99397.53;5132683;28;20194;-67
2022/07/24 07:32:43;;;;;;;10.27;6.60;;;;;;;36.98;27.13;99386.94;5132537;27;20194;-68
2022/07/24 07:35:11;;;;;;;11.23;6.80;;;;;;;36.76;27.59;99385.03;5132585;27;20243;-67
2022/07/24 07:37:38;;;;;;;9.30;6.45;;;;;;;37.09;27.56;99387.91;5132289;27;20194;-67
2022/07/24 07:40:07;;;;;;;8.60;7.05;;;;;;;37.34;26.42;99380.00;5131698;27;20202;-67
2022/07/24 07:42:34;;;;;;;9.85;6.10;;;;;;;37.44;26.77;99377.34;5132914;27;20253;-67
2022/07/24 07:45:01;;;;;;;8.52;7.28;;;;;;;37.51;26.97;99374.66;5132395;27;20186;-67
2022/07/24 07:47:27;;;;;;;11.73;6.50;;;;;;;37.68;26.79;99378.88;5135402;27;20281;-68
2022/07/24 07:49:55;;;;;;;11.25;6.70;;;;;;;37.57;26.92;99381.47;5135980;27;20255;-68
2022/07/24 07:52:22;;;;;;;8.20;6.38;;;;;;;37.74;26.36;99375.38;5136230;27;20193;-68
2022/07/24 07:54:49;;;;;;;6.60;6.15;;;;;;;37.94;25.81;99376.78;5136193;27;20246;-67
2022/07/24 07:57:18;;;;;;;8.18;5.97;;;;;;;37.92;25.85;99375.59;5136232;27;20190;-67
2022/07/24 07:59:44;;;;;;;7.68;5.38;;;;;;;37.79;26.55;99377.81;5135974;27;20194;-67
2022/07/24 08:02:11;;;;;;;9.00;5.93;;;;;;;37.24;26.65;99375.91;5136045;27;20285;-67
2022/07/24 08:04:38;;;;;;;7.70;5.60;;;;;;;37.38;26.59;99364.97;5135869;27;20617;-67
2022/07/24 08:07:04;;;;;;;7.25;5.90;;;;;;;37.63;26.72;99363.34;5135677;27;20190;-67
2022/07/24 08:09:31;;;;;;;10.23;5.53;;;;;;;37.90;25.90;99364.84;5135622;27;20227;-67
2022/07/24 08:11:58;;;;;;;13.00;5.80;;;;;;;38.18;25.39;99359.63;5135558;27;20247;-67
2022/07/24 08:14:26;;;;;;;9.65;6.18;;;;;;;38.22;25.71;99360.47;5136033;27;20190;-67
2022/07/24 08:16:53;;;;;;;6.78;5.28;;;;;;;38.20;25.37;99353.72;5136546;27;20281;-67
2022/07/24 08:19:20;;;;;;;6.20;5.20;;;;;;;38.23;25.20;99359.28;5135858;27;20189;-67
2022/07/24 08:21:47;;;;;;;5.60;5.20;;;;;;;38.22;25.51;99356.88;5135670;27;20197;-67
2022/07/24 08:24:20;;;;;;;7.18;4.90;;;;;;;38.06;25.67;99353.56;5135559;27;20197;-66
2022/07/24 08:26:47;;;;;;;9.02;5.05;;;;;;;37.95;25.51;99355.38;5135224;27;20668;-66
2022/07/24 08:29:13;;;;;;;6.07;5.13;;;;;;;38.04;25.23;99350.38;5135440;27;20201;-66
2022/07/24 08:31:42;;;;;;;5.70;5.25;;;;;;;38.25;25.21;99354.13;5135101;27;20193;-66
2022/07/24 08:34:08;;;;;;;5.65;5.00;;;;;;;38.22;25.17;99346.59;5135207;27;20190;-66
2022/07/24 08:36:36;;;;;;;10.05;5.32;;;;;;;38.14;25.86;99344.94;5135076;27;20730;-66
2022/07/24 08:39:03;;;;;;;9.32;4.95;;;;;;;38.30;25.63;99347.44;5135243;27;20186;-66
2022/07/24 08:41:32;;;;;;;7.25;5.32;;;;;;;38.06;25.48;99343.25;5135007;27;20732;-67
2022/07/24 08:43:59;;;;;;;8.10;4.90;;;;;;;37.93;25.72;99336.38;5134768;27;20304;-67
2022/07/24 08:46:28;;;;;;;6.43;5.60;;;;;;;38.09;25.56;99350.81;5134927;27;20660;-67
2022/07/24 08:48:57;;;;;;;8.30;5.40;;;;;;;38.35;25.07;99338.75;5135686;27;20256;-68
2022/07/24 08:51:32;;;;;;;13.30;5.45;;;;;;;38.24;25.49;99344.22;5134655;27;20767;-66
2022/07/24 08:53:59;;;;;;;6.95;5.28;;;;;;;38.30;25.44;99336.34;5135445;27;20217;-66
2022/07/24 08:56:26;;;;;;;6.10;5.20;;;;;;;38.41;25.05;99340.00;5135186;27;20226;-66
2022/07/24 08:58:53;;;;;;;7.40;5.30;;;;;;;38.27;25.18;99332.34;5134454;27;20246;-66
2022/07/24 09:01:20;;;;;;;8.68;5.47;;;;;;;38.01;26.21;99332.47;5135421;27;20250;-67
2022/07/24 09:03:48;;;;;;;10.63;5.32;;;;;;;38.15;25.55;99327.09;5134237;27;20700;-69
2022/07/24 09:06:16;;;;;;;7.28;5.40;;;;;;;38.32;25.28;99328.41;5135242;27;20197;-67
2022/07/24 09:08:56;;;;;;;5.75;5.18;;;;;;;38.56;25.55;99311.19;5134465;27;20569;-66
2022/07/24 09:11:23;;;;;;;8.00;4.72;;;;;;;38.66;25.64;99316.81;5134227;27;20186;-66
2022/07/24 09:16:38;;;;;;;7.90;5.30;;;;;;;38.25;26.23;99318.03;5134117;27;20185;-66
2022/07/24 09:19:07;;;;;;;6.63;5.65;;;;;;;37.84;26.04;99313.66;5133852;27;20194;-67
2022/07/24 09:21:37;;;;;;;5.88;5.07;;;;;;;38.33;25.14;99316.94;5134011;27;20618;-68
2022/07/24 09:24:13;;;;;;;15.63;5.53;;;;;;;38.63;24.71;99312.06;5133826;27;20251;-67
2022/07/24 09:26:51;;;;;;;9.75;5.45;;;;;;;38.88;25.17;99307.44;5134912;27;20182;-66
2022/07/24 09:29:18;;;;;;;5.10;4.63;;;;;;;38.92;25.04;99302.75;5134151;27;20533;-66
2022/07/24 09:31:53;;;;;;;7.07;5.00;;;;;;;39.02;24.33;99307.53;5134043;27;20194;-66
2022/07/24 09:34:19;;;;;;;11.88;5.90;;;;;;;39.01;24.69;99305.97;5133266;27;20262;-66
2022/07/24 09:37:00;;;;;;;6.22;5.80;;;;;;;39.14;24.24;99293.31;5133852;27;20197;-66
2022/07/24 09:39:29;;;;;;;5.80;5.30;;;;;;;39.03;24.28;99292.47;5133519;27;20642;-66
2022/07/24 09:41:57;;;;;;;6.13;5.55;;;;;;;38.89;25.07;99292.38;5134179;27;20189;-66
2022/07/24 09:44:25;;;;;;;8.32;5.88;;;;;;;39.14;24.96;99292.50;5133912;27;20300;-66
2022/07/24 09:46:57;;;;;;;6.13;5.18;;;;;;;39.42;24.65;99299.03;5134028;27;20194;-66
2022/07/24 09:49:24;;;;;;;9.07;5.97;;;;;;;39.51;24.46;99293.88;5134210;27;20277;-66
2022/07/24 09:52:11;;;;;;;8.65;5.53;;;;;;;39.19;25.08;99286.59;5133919;27;20193;-66
2022/07/24 09:54:40;;;;;;;9.45;5.63;;;;;;;39.19;25.01;99281.81;5134536;27;20277;-66
2022/07/24 09:57:20;;;;;;;22.33;5.85;;;;;;;39.35;24.93;99281.53;5133497;27;20197;-66
2022/07/24 09:59:48;;;;;;;5.93;5.40;;;;;;;39.41;24.39;99282.72;5133772;27;20198;-66
2022/07/24 10:02:19;;;;;;;5.63;4.90;;;;;;;39.48;24.71;99268.84;5133121;27;20693;-66
2022/07/24 10:04:47;;;;;;;10.18;5.45;;;;;;;39.37;24.59;99268.81;5133762;27;20254;-66
2022/07/24 10:07:18;;;;;;;10.10;5.13;;;;;;;39.19;24.42;99261.56;5134008;27;20249;-66
2022/07/24 10:09:46;;;;;;;8.52;5.32;;;;;;;38.78;25.51;99262.94;5132831;27;20645;-66
2022/07/24 10:12:15;;;;;;;6.90;5.53;;;;;;;38.55;25.22;99265.16;5133336;27;20743;-66
2022/07/24 10:14:43;;;;;;;6.72;6.13;;;;;;;38.52;24.62;99254.81;5134300;27;20608;-66
2022/07/24 10:17:12;;;;;;;8.88;5.03;;;;;;;38.63;25.29;99255.69;5133215;27;20657;-66
2022/07/24 10:19:42;;;;;;;7.72;4.90;;;;;;;38.58;24.88;99259.63;5133405;27;20186;-66
2022/07/24 10:22:14;;;;;;;7.50;6.32;;;;;;;38.59;25.24;99252.09;5133287;27;20192;-66
2022/07/24 10:25:06;;;;;;;5.95;5.45;;;;;;;38.65;25.39;99250.56;5133422;27;20584;-67
2022/07/24 10:27:34;;;;;;;7.82;5.35;;;;;;;38.53;24.58;99243.34;5130191;27;20225;-66
2022/07/24 10:30:05;;;;;;;8.20;5.80;;;;;;;38.58;25.01;99233.84;5132987;27;20719;-66
2022/07/24 10:32:34;;;;;;;7.25;5.32;;;;;;;38.73;25.41;99233.53;5134007;27;20262;-66
2022/07/24 10:35:07;;;;;;;6.47;5.38;;;;;;;38.74;25.33;99235.13;5133148;27;20693;-66
2022/07/24 10:37:42;;;;;;;7.18;5.05;;;;;;;38.60;25.62;99221.16;5133438;27;20600;-66
2022/07/24 10:40:31;;;;;;;9.90;5.43;;;;;;;38.62;25.14;99235.44;5132952;27;20193;-66
2022/07/24 10:43:15;;;;;;;8.18;6.05;;;;;;;38.64;25.18;99233.09;5134085;27;20623;-66
2022/07/24 10:45:44;;;;;;;6.68;5.88;;;;;;;38.41;24.68;99226.97;5132882;27;20758;-65
2022/07/24 10:48:32;;;;;;;7.07;5.57;;;;;;;38.56;24.35;99225.91;5133240;27;20278;-66
2022/07/24 10:51:08;;;;;;;9.50;4.95;;;;;;;38.27;24.09;99215.78;5133561;28;20214;-66
2022/07/24 10:53:48;;;;;;;13.32;5.70;;;;;;;38.43;23.14;99219.06;5133760;28;20214;-66
2022/07/24 10:56:18;;;;;;;6.03;5.30;;;;;;;38.72;23.95;99218.06;5132749;28;20612;-66
2022/07/24 10:58:58;;;;;;;9.60;6.57;;;;;;;39.00;22.59;99212.66;5132833;28;20185;-66
2022/07/24 11:01:29;;;;;;;7.50;5.25;;;;;;;39.02;22.84;99204.72;5132679;28;20239;-66
2022/07/24 11:03:57;;;;;;;8.38;6.13;;;;;;;38.88;22.48;99201.88;5133009;28;20221;-66
2022/07/24 11:06:40;;;;;;;8.27;5.85;;;;;;;39.08;23.01;99203.16;5133052;28;20266;-66
2022/07/24 11:09:06;;;;;;;10.90;5.63;;;;;;;39.21;22.12;99201.63;5133494;28;20553;-66
2022/07/24 11:11:41;;;;;;;9.95;6.00;;;;;;;39.28;22.42;99192.50;5132816;28;20189;-66
2022/07/24 11:14:08;;;;;;;9.05;5.75;;;;;;;39.42;22.55;99176.66;5133791;28;20272;-66
2022/07/24 11:16:36;;;;;;;10.70;5.82;;;;;;;39.71;21.83;99194.16;5132473;28;20239;-66
2022/07/24 11:19:25;;;;;;;8.70;5.47;;;;;;;39.59;21.78;99195.38;5132584;28;20190;-66
2022/07/24 11:22:03;;;;;;;6.05;5.65;;;;;;;39.75;22.51;99189.41;5134665;27;20190;-66
2022/07/24 11:24:30;;;;;;;6.05;4.95;;;;;;;39.41;22.47;99179.84;5136591;27;20202;-66
2022/07/24 11:27:00;;;;;;;9.13;5.43;;;;;;;39.10;23.15;99186.88;5136500;27;20292;-66
2022/07/24 11:29:29;;;;;;;7.25;5.20;;;;;;;39.22;22.12;99175.41;5136523;27;20186;-66
2022/07/24 11:32:01;;;;;;;9.20;5.50;;;;;;;39.47;22.19;99173.50;5136739;27;20193;-66
2022/07/24 11:34:29;;;;;;;10.38;6.25;;;;;;;39.67;22.15;99171.94;5136424;27;20658;-66
2022/07/24 11:36:57;;;;;;;7.93;5.95;;;;;;;39.18;22.12;99166.25;5136568;27;20196;-66
2022/07/24 11:39:28;;;;;;;6.38;5.30;;;;;;;39.33;22.70;99154.03;5136900;27;20190;-66